Time;durP1;ratioP1;P1;durP2;ratioP2;P2;SDS_P1;SDS_P2;PMS_P1;PMS_P2;Temp;Humidity;BMP_temperature;BMP_pressure;BME280_temperature;BME280_humidity;BME280_pressure;Samples;Min_cycle;Max_cycle;Signal;HPM_P1;HPM_P2
2020/12/18 00:01:01;;;;;;;8.88;3.58;;;9.30;89.30;;;9.29;75.72;101181.81;4975935;28;20134;-82
2020/12/18 00:03:28;;;;;;;11.70;3.88;;;9.30;89.20;;;9.26;75.32;101176.69;4976792;28;20062;-82
2020/12/18 00:05:55;;;;;;;13.00;3.80;;;9.30;89.20;;;9.27;75.54;101175.69;4976420;28;20506;-82
2020/12/18 00:08:22;;;;;;;10.45;4.05;;;9.30;89.10;;;9.28;75.74;101174.66;4976398;28;20121;-82
2020/12/18 00:10:49;;;;;;;12.30;4.10;;;9.30;89.20;;;9.28;75.79;101177.38;4976305;28;20075;-82
2020/12/18 00:13:16;;;;;;;9.63;4.40;;;9.30;89.20;;;9.27;75.81;101172.97;4976408;28;20146;-82
2020/12/18 00:15:42;;;;;;;11.25;3.60;;;9.30;89.00;;;9.30;75.66;101178.06;4975919;28;20158;-82
2020/12/18 00:18:09;;;;;;;12.18;3.38;;;9.30;89.00;;;9.29;75.39;101170.06;4975875;28;20129;-82
2020/12/18 00:20:36;;;;;;;7.65;3.63;;;9.30;89.10;;;9.25;75.81;101174.97;4975998;28;20218;-82
2020/12/18 00:23:03;;;;;;;8.18;3.47;;;9.30;89.30;;;9.26;75.66;101175.84;4975644;28;20077;-82
2020/12/18 00:25:30;;;;;;;10.90;3.45;;;9.30;89.40;;;9.26;75.85;101179.41;4975578;28;20070;-82
2020/12/18 00:27:57;;;;;;;8.13;3.80;;;9.30;89.60;;;9.29;75.61;101170.06;4975796;28;20121;-81
2020/12/18 00:30:24;;;;;;;9.25;3.80;;;9.30;89.40;;;9.25;75.78;101180.38;4975962;28;20145;-82
2020/12/18 00:32:50;;;;;;;8.07;3.63;;;9.30;89.50;;;9.26;76.05;101182.09;4976330;28;20039;-82
2020/12/18 00:35:19;;;;;;;10.82;3.47;;;9.30;89.60;;;9.21;75.53;101179.00;4975944;28;20158;-82
2020/12/18 00:37:45;;;;;;;9.77;3.42;;;9.20;89.40;;;9.23;75.97;101179.69;4976074;28;20054;-82
2020/12/18 00:40:12;;;;;;;9.88;3.67;;;9.20;89.40;;;9.25;75.85;101179.56;4974957;28;20062;-81
2020/12/18 00:42:40;;;;;;;9.80;3.53;;;9.20;89.60;;;9.22;76.17;101179.88;4976261;28;20129;-82
2020/12/18 00:45:06;;;;;;;10.80;3.60;;;9.20;89.70;;;9.23;75.85;101179.69;4957546;28;20097;-82
2020/12/18 00:47:33;;;;;;;9.05;4.25;;;9.20;89.80;;;9.21;76.25;101179.00;4958148;28;20051;-82
2020/12/18 00:50:00;;;;;;;8.63;3.40;;;9.20;89.90;;;9.18;75.94;101179.34;4954866;29;20054;-82
2020/12/18 00:52:27;;;;;;;9.25;3.28;;;9.20;89.60;;;9.23;76.11;101187.84;4955528;29;20117;-82
2020/12/18 00:54:53;;;;;;;11.10;3.70;;;9.20;89.60;;;9.23;75.93;101182.41;4958324;28;20054;-82
2020/12/18 00:57:24;;;;;;;13.87;4.57;;;9.20;89.70;;;9.21;76.37;101179.00;4958208;28;20046;-82
2020/12/18 00:59:52;;;;;;;11.48;3.67;;;9.20;89.80;;;9.21;76.24;101184.44;4957986;28;20050;-82
2020/12/18 01:02:39;;;;;;;9.15;3.10;;;9.20;89.80;;;9.24;76.12;101180.56;4972970;28;20054;-82
2020/12/18 01:05:06;;;;;;;14.50;3.35;;;9.20;89.70;;;9.24;75.71;101177.84;4975443;28;20047;-81
2020/12/18 01:07:33;;;;;;;10.05;3.75;;;9.20;89.60;;;9.22;75.78;101175.31;4957788;28;20050;-82
2020/12/18 01:10:00;;;;;;;7.72;3.28;;;9.20;89.80;;;9.15;75.90;101176.94;4954347;28;20122;-82
2020/12/18 01:12:27;;;;;;;7.85;3.17;;;9.10;89.90;;;9.15;76.15;101179.66;4938420;29;20070;-82
2020/12/18 01:14:54;;;;;;;7.50;3.03;;;9.20;89.90;;;9.16;76.05;101179.50;4965984;28;20511;-82
2020/12/18 01:17:21;;;;;;;6.70;3.15;;;9.10;89.70;;;9.14;75.67;101180.69;4958138;28;20047;-81
2020/12/18 01:19:50;;;;;;;14.63;3.55;;;9.10;89.80;;;9.12;75.93;101175.41;4957205;28;20062;-82
2020/12/18 01:22:17;;;;;;;11.50;3.35;;;9.10;89.90;;;9.14;76.02;101177.97;4957844;28;20061;-82
2020/12/18 01:24:47;;;;;;;12.02;3.30;;;9.10;89.90;;;9.11;76.15;101172.84;4957575;28;20043;-82
2020/12/18 01:27:15;;;;;;;12.68;3.20;;;9.10;89.90;;;9.09;76.04;101181.13;4957621;28;20066;-82
2020/12/18 01:29:41;;;;;;;12.38;3.17;;;9.10;90.00;;;9.08;75.80;101176.75;4975431;28;20048;-82
2020/12/18 01:32:12;;;;;;;8.07;2.97;;;9.00;89.80;;;9.09;76.16;101174.88;4958047;28;20451;-82
2020/12/18 01:34:43;;;;;;;9.60;3.05;;;9.00;89.80;;;9.08;76.06;101178.56;4973868;28;20129;-82
2020/12/18 01:37:12;;;;;;;10.20;2.92;;;9.00;89.80;;;9.08;75.69;101178.56;4956848;28;20462;-82
2020/12/18 01:39:50;;;;;;;7.68;2.90;;;9.00;89.80;;;9.06;75.53;101188.75;4973398;28;20055;-81
2020/12/18 01:42:22;;;;;;;8.73;2.75;;;9.00;89.90;;;9.04;76.19;101193.50;4957199;28;20062;-82
2020/12/18 01:44:48;;;;;;;8.90;2.90;;;9.00;90.00;;;9.02;76.00;101182.78;4956876;28;20054;-82
2020/12/18 01:47:28;;;;;;;8.15;3.38;;;9.00;90.00;;;8.99;76.27;101183.97;4957448;28;20109;-82
2020/12/18 01:49:57;;;;;;;9.95;3.03;;;9.00;90.20;;;9.00;76.68;101180.25;4973299;28;20065;-82
2020/12/18 01:52:25;;;;;;;10.30;2.60;;;9.00;90.20;;;9.01;76.11;101189.25;4957919;28;20051;-82
2020/12/18 01:55:02;;;;;;;8.90;2.95;;;9.00;90.00;;;9.04;75.85;101190.78;4956622;28;20038;-82
2020/12/18 01:57:33;;;;;;;9.40;3.13;;;9.00;90.00;;;9.02;75.79;101190.09;4973108;28;20086;-82
2020/12/18 02:00:06;;;;;;;7.07;2.50;;;9.00;90.00;;;8.97;75.75;101187.84;4956386;28;20055;-82
2020/12/18 02:02:43;;;;;;;9.50;2.60;;;9.00;90.00;;;8.97;76.07;101188.69;4974003;28;20047;-82
2020/12/18 02:05:28;;;;;;;6.53;2.40;;;8.90;90.10;;;8.93;76.02;101181.88;4963904;28;20103;-82
2020/12/18 02:08:03;;;;;;;9.98;3.22;;;8.90;90.10;;;8.90;75.86;101184.06;4956311;28;20047;-82
2020/12/18 02:10:49;;;;;;;9.52;3.10;;;8.90;90.20;;;8.91;76.74;101166.75;4974545;28;20054;-82
2020/12/18 02:13:19;;;;;;;10.17;3.70;;;8.90;90.20;;;8.92;76.37;101169.31;4956685;28;20384;-82
2020/12/18 02:15:49;;;;;;;6.78;2.30;;;8.90;90.10;;;8.91;76.09;101167.63;4956155;28;20306;-82
2020/12/18 02:18:37;;;;;;;10.00;2.95;;;8.90;90.00;;;8.91;76.37;101162.19;4973853;28;20055;-82
2020/12/18 02:21:05;;;;;;;11.05;2.63;;;8.80;90.10;;;8.90;76.11;101165.06;4951118;28;20055;-82
2020/12/18 02:23:39;;;;;;;12.88;3.25;;;8.90;90.30;;;8.85;76.46;101165.50;4953083;28;20057;-82
2020/12/18 02:26:09;;;;;;;7.28;2.72;;;8.90;90.40;;;8.86;76.25;101159.09;4956152;28;20460;-81
2020/12/18 02:28:42;;;;;;;7.13;2.45;;;8.90;90.50;;;8.84;76.14;101157.53;4973191;28;20051;-82
2020/12/18 02:31:10;;;;;;;7.85;3.00;;;8.80;90.10;;;8.82;76.10;101170.44;4956772;28;20097;-82
2020/12/18 02:33:41;;;;;;;9.57;2.85;;;8.80;90.20;;;8.87;76.06;101168.94;4956284;28;20046;-82
2020/12/18 02:36:13;;;;;;;8.15;2.55;;;8.80;90.10;;;8.84;75.96;101162.97;4956327;28;20055;-82
2020/12/18 02:38:43;;;;;;;3.97;2.33;;;8.80;90.20;;;8.80;76.08;101165.16;4956470;28;20113;-82
2020/12/18 02:41:11;;;;;;;5.75;2.45;;;8.80;90.20;;;8.80;76.11;101154.28;4974337;28;20069;-82
2020/12/18 02:44:01;;;;;;;8.43;2.33;;;8.80;90.30;;;8.82;76.17;101157.69;4965954;28;20043;-82
2020/12/18 02:46:28;;;;;;;6.50;2.28;;;8.80;90.30;;;8.81;76.34;101161.41;4977715;28;20522;-82
2020/12/18 02:48:58;;;;;;;6.97;3.00;;;8.80;90.40;;;8.84;76.13;101157.53;4961211;28;20490;-82
2020/12/18 02:51:34;;;;;;;8.65;1.98;;;8.80;90.40;;;8.82;76.18;101156.84;4942682;28;20066;-82
2020/12/18 02:54:24;;;;;;;10.00;2.53;;;8.80;90.50;;;8.80;76.18;101151.56;4941279;28;20058;-81
2020/12/18 02:57:11;;;;;;;11.52;2.88;;;8.80;90.60;;;8.82;76.70;101162.28;4977226;28;20047;-82
2020/12/18 02:59:48;;;;;;;7.00;2.10;;;8.80;90.50;;;8.80;76.58;101157.00;4978042;28;20050;-82
2020/12/18 03:02:15;;;;;;;7.75;2.13;;;8.80;90.50;;;8.77;76.20;101155.44;4977819;28;20078;-82
2020/12/18 03:04:44;;;;;;;8.48;2.55;;;8.70;90.60;;;8.76;76.46;101150.19;4960390;28;20046;-81
2020/12/18 03:07:29;;;;;;;6.50;2.20;;;8.70;90.50;;;8.76;76.68;101161.06;4959886;28;20106;-82
2020/12/18 03:09:56;;;;;;;7.03;2.25;;;8.70;90.60;;;8.75;76.82;101157.47;4977520;28;20055;-82
2020/12/18 03:12:24;;;;;;;7.78;2.10;;;8.70;90.60;;;8.74;76.47;101155.78;4960444;28;20055;-82
2020/12/18 03:14:51;;;;;;;8.68;2.40;;;8.70;90.50;;;8.78;76.66;101156.31;4959568;28;20530;-82
2020/12/18 03:17:40;;;;;;;10.38;2.33;;;8.80;90.70;;;8.74;76.10;101160.34;4977435;28;20054;-82
2020/12/18 03:20:09;;;;;;;5.97;2.20;;;8.80;90.60;;;8.75;76.25;101156.63;4977716;28;20086;-82
2020/12/18 03:22:43;;;;;;;8.23;2.05;;;8.80;90.50;;;8.77;76.28;101157.31;4960202;28;20070;-81
2020/12/18 03:25:21;;;;;;;9.75;2.30;;;8.80;90.60;;;8.74;76.72;101163.91;4959166;28;20051;-82
2020/12/18 03:28:03;;;;;;;10.37;2.20;;;8.80;90.60;;;8.78;76.19;101159.03;4959874;28;20046;-82
2020/12/18 03:30:30;;;;;;;8.10;2.30;;;8.80;90.50;;;8.77;76.39;101160.88;4960224;28;20051;-82
2020/12/18 03:33:00;;;;;;;11.38;2.22;;;8.80;90.50;;;8.79;76.62;101160.72;4959891;28;20057;-82
2020/12/18 03:35:28;;;;;;;7.05;2.22;;;8.80;90.40;;;8.77;76.31;101157.31;4959231;28;20042;-81
2020/12/18 03:37:55;;;;;;;10.02;2.40;;;8.80;90.40;;;8.72;76.60;101159.63;4976725;28;20077;-82
2020/12/18 03:40:25;;;;;;;9.15;2.17;;;8.70;90.40;;;8.72;76.62;101157.78;4959559;28;20054;-82
2020/12/18 03:43:06;;;;;;;6.50;1.80;;;8.80;90.50;;;8.70;76.82;101156.22;4959227;28;20050;-81
2020/12/18 03:45:35;;;;;;;10.63;2.40;;;8.80;90.50;;;8.75;76.50;101156.63;4958608;28;20065;-82
2020/12/18 03:48:20;;;;;;;7.43;2.63;;;8.80;90.30;;;8.72;76.35;101155.06;4976969;28;20061;-82
2020/12/18 03:50:54;;;;;;;7.50;1.95;;;8.80;90.20;;;8.76;76.48;101158.34;4959909;28;20051;-82
2020/12/18 03:53:27;;;;;;;5.05;1.65;;;8.80;90.40;;;8.79;76.19;101158.00;4959209;28;20050;-82
2020/12/18 03:56:03;;;;;;;7.43;2.05;;;8.80;90.30;;;8.80;76.60;101157.00;4957130;28;20467;-82
2020/12/18 03:58:38;;;;;;;8.65;2.20;;;8.80;90.30;;;8.74;76.05;101149.50;4977317;28;20047;-82
2020/12/18 04:01:31;;;;;;;5.45;2.05;;;8.80;90.10;;;8.74;75.71;101154.94;4953455;28;20046;-82
2020/12/18 04:03:58;;;;;;;9.20;2.05;;;8.80;90.10;;;8.73;76.48;101150.50;4959187;28;20106;-82
2020/12/18 04:06:25;;;;;;;9.88;1.90;;;8.80;90.10;;;8.73;76.24;101154.06;4958569;28;20039;-82
2020/12/18 04:08:51;;;;;;;11.68;2.67;;;8.80;90.40;;;8.71;76.28;101155.22;4959581;28;20055;-82
2020/12/18 04:11:54;;;;;;;8.15;2.38;;;8.80;90.30;;;8.74;76.73;101154.94;4964852;28;20051;-81
2020/12/18 04:14:37;;;;;;;10.57;1.93;;;8.80;90.30;;;8.73;76.48;101158.63;4976304;28;20057;-82
2020/12/18 04:17:22;;;;;;;6.20;2.05;;;8.80;90.30;;;8.74;76.65;101157.63;4958724;28;20318;-82
2020/12/18 04:19:55;;;;;;;11.25;2.13;;;8.80;90.40;;;8.73;76.58;101153.22;4958537;28;20089;-82
2020/12/18 04:22:22;;;;;;;10.98;2.88;;;8.80;90.20;;;8.71;76.42;101157.94;4958697;28;20068;-82
2020/12/18 04:25:09;;;;;;;8.15;2.30;;;8.80;90.40;;;8.75;76.66;101159.31;4974440;28;20066;-82
2020/12/18 04:27:41;;;;;;;5.75;2.10;;;8.80;90.40;;;8.74;76.36;101152.22;4958672;28;20054;-82
2020/12/18 04:30:11;;;;;;;13.07;2.55;;;8.70;90.30;;;8.71;76.83;101155.22;4958742;28;20051;-82
2020/12/18 04:32:42;;;;;;;7.43;2.25;;;8.80;90.40;;;8.69;76.26;101157.25;4975498;28;20050;-82
2020/12/18 04:35:10;;;;;;;6.45;2.30;;;8.80;90.20;;;8.72;76.83;101157.78;4958295;28;20057;-82
2020/12/18 04:37:56;;;;;;;7.85;2.22;;;8.80;90.30;;;8.73;76.12;101151.34;4975723;28;20051;-82
2020/12/18 04:40:42;;;;;;;8.23;2.20;;;8.80;90.40;;;8.73;76.60;101150.50;4958868;28;20063;-82
2020/12/18 04:43:18;;;;;;;7.80;2.13;;;8.80;90.40;;;8.71;76.85;101147.94;4958658;28;20407;-82
2020/12/18 04:45:47;;;;;;;6.70;2.05;;;8.80;90.50;;;8.74;76.85;101138.66;4958313;28;20051;-82
2020/12/18 04:48:26;;;;;;;14.23;2.60;;;8.80;90.30;;;8.77;76.26;101146.44;4958624;28;20050;-82
2020/12/18 04:50:56;;;;;;;7.07;2.85;;;8.80;90.00;;;8.76;76.19;101150.19;4955585;28;20061;-81
2020/12/18 04:53:30;;;;;;;7.00;2.10;;;8.80;90.20;;;8.77;76.00;101146.44;4940741;28;20543;-81
2020/12/18 04:56:10;;;;;;;8.13;2.30;;;8.80;90.20;;;8.73;76.49;101147.78;4957662;28;20101;-82
2020/12/18 04:59:07;;;;;;;8.95;2.35;;;8.80;90.20;;;8.70;76.19;101139.94;4962359;28;20059;-82
2020/12/18 05:01:55;;;;;;;10.30;2.30;;;8.80;90.30;;;8.69;76.37;101140.97;4958504;28;20775;-82
2020/12/18 05:04:27;;;;;;;5.63;2.28;;;8.70;90.30;;;8.73;76.40;101134.22;4958093;28;20053;-82
2020/12/18 05:07:12;;;;;;;8.23;2.47;;;8.70;90.20;;;8.72;75.77;101127.06;4953804;28;20575;-82
2020/12/18 05:09:48;;;;;;;6.97;2.47;;;8.70;90.00;;;8.68;76.14;101131.97;4963833;28;20047;-82
2020/12/18 05:12:18;;;;;;;7.45;2.33;;;8.70;90.30;;;8.71;76.26;101137.06;4958121;28;20047;-82
2020/12/18 05:14:48;;;;;;;10.07;2.40;;;8.70;90.50;;;8.69;76.21;101127.41;4957256;28;20043;-82
2020/12/18 05:17:28;;;;;;;7.80;2.20;;;8.70;90.40;;;8.73;76.22;101126.06;4958485;28;20062;-82
2020/12/18 05:19:55;;;;;;;8.57;2.30;;;8.70;90.50;;;8.70;76.29;101121.81;4958061;28;20066;-82
2020/12/18 05:22:54;;;;;;;7.32;2.53;;;8.70;90.50;;;8.67;76.82;101126.72;4975203;28;20051;-82
2020/12/18 05:25:35;;;;;;;6.90;2.28;;;8.70;90.50;;;8.73;75.87;101126.91;4954118;28;20047;-81
2020/12/18 05:28:03;;;;;;;7.13;2.35;;;8.70;90.50;;;8.76;76.13;101128.47;4971780;28;20526;-81
2020/12/18 05:30:33;;;;;;;6.30;2.60;;;8.70;90.50;;;8.73;76.60;101120.66;4961591;28;20054;-80
2020/12/18 05:33:29;;;;;;;8.93;2.72;;;8.70;90.40;;;8.72;76.50;101124.34;4926356;28;20056;-84
2020/12/18 05:36:25;;;;;;;5.60;2.33;;;8.70;90.60;;;8.71;76.18;101128.09;4962151;28;20582;-85
2020/12/18 05:38:54;;;;;;;5.78;2.10;;;8.70;90.60;;;8.71;76.11;101117.25;4975938;28;20039;-85
2020/12/18 05:41:32;;;;;;;10.52;3.40;;;8.70;90.60;;;8.71;76.40;101111.81;4974323;28;20047;-84
2020/12/18 05:44:06;;;;;;;8.43;2.47;;;8.70;90.50;;;8.73;76.23;101116.06;4958077;28;20039;-83
2020/12/18 05:46:52;;;;;;;9.02;2.72;;;8.70;90.60;;;8.69;76.58;101116.53;4975966;28;20061;-84
2020/12/18 05:49:34;;;;;;;6.03;2.63;;;8.70;90.50;;;8.69;76.45;101116.53;4958337;28;20436;-84
2020/12/18 05:52:20;;;;;;;12.00;3.05;;;8.70;90.60;;;8.71;76.26;101114.53;4974106;28;20050;-84
2020/12/18 05:55:14;;;;;;;11.07;3.83;;;8.70;90.50;;;8.67;76.13;101113.97;4967423;28;20137;-84
2020/12/18 05:58:15;;;;;;;8.45;3.40;;;8.70;90.30;;;8.72;76.31;101116.22;4943931;29;20047;-86
2020/12/18 06:01:04;;;;;;;7.18;2.13;;;8.70;90.30;;;8.76;76.25;101120.34;4937895;28;20079;-85
2020/12/18 06:04:00;;;;;;;6.65;2.15;;;8.70;90.50;;;8.75;76.29;101113.19;4968040;28;20125;-85
2020/12/18 06:06:30;;;;;;;5.85;2.25;;;8.70;90.20;;;8.74;76.11;101111.50;4955919;28;20038;-85
2020/12/18 06:08:59;;;;;;;11.55;2.22;;;8.70;90.30;;;8.72;76.44;101118.94;4973037;28;20682;-84
2020/12/18 06:11:31;;;;;;;10.85;2.05;;;8.80;90.30;;;8.75;75.98;101110.47;4956771;28;20070;-84
2020/12/18 06:14:10;;;;;;;6.60;1.90;;;8.80;90.10;;;8.79;76.31;101114.56;4953917;29;20113;-84
2020/12/18 06:17:07;;;;;;;8.10;2.10;;;8.80;90.20;;;8.76;75.99;101114.91;4953542;28;20094;-83
2020/12/18 06:19:51;;;;;;;7.80;2.33;;;8.80;90.00;;;8.73;76.05;101104.38;4953559;28;20143;-83
2020/12/18 06:22:23;;;;;;;9.18;2.63;;;8.80;89.90;;;8.75;75.70;101105.06;4955893;28;20043;-83
2020/12/18 06:25:05;;;;;;;6.03;2.20;;;8.80;90.00;;;8.71;76.36;101106.38;4957705;28;20051;-80
2020/12/18 06:27:58;;;;;;;8.27;2.30;;;8.80;90.00;;;8.70;76.23;101110.97;4980589;28;20057;-79
2020/12/18 06:30:31;;;;;;;;;;;8.70;90.10;;;8.66;76.48;101109.56;4964403;28;20050;-81
2020/12/18 06:33:17;;;;;;;8.82;2.10;;;8.70;90.20;;;8.64;76.37;101106.16;4980934;28;19932;-80
2020/12/18 06:36:07;;;;;;;7.85;2.78;;;8.70;90.20;;;8.63;76.04;101100.91;4962567;28;20326;-80
2020/12/18 06:38:58;;;;;;;8.85;2.85;;;8.70;90.20;;;8.60;76.43;101105.63;4958858;28;20066;-80
2020/12/18 06:42:12;;;;;;;5.82;1.92;;;8.70;90.10;;;8.59;76.04;101108.50;4957730;29;20134;-80
2020/12/18 06:45:00;;;;;;;8.75;2.42;;;8.70;90.30;;;8.60;76.13;101108.34;4971425;28;20055;-80
2020/12/18 06:47:32;;;;;;;9.80;2.00;;;8.60;90.20;;;8.60;75.69;101102.94;4979915;28;20081;-80
2020/12/18 06:50:18;;;;;;;9.77;2.20;;;8.60;90.20;;;8.57;76.31;101097.81;4980315;28;20101;-80
2020/12/18 06:53:06;;;;;;;6.05;1.95;;;8.50;90.10;;;8.55;76.04;101097.09;4979332;28;20057;-80
2020/12/18 06:55:48;;;;;;;6.70;2.10;;;8.50;90.30;;;8.52;76.21;101108.25;4978510;28;20050;-80
2020/12/18 06:58:44;;;;;;;6.45;2.42;;;8.50;90.00;;;8.50;76.17;101113.00;4938210;29;20059;-82
2020/12/18 07:01:10;;;;;;;10.02;2.55;;;8.50;90.10;;;8.52;76.10;101097.41;4960770;28;20082;-81
2020/12/18 07:03:42;;;;;;;5.47;2.10;;;8.50;90.10;;;8.54;76.06;101102.69;4977993;28;20066;-80
2020/12/18 07:06:12;;;;;;;9.80;2.30;;;8.50;90.20;;;8.55;76.21;101102.53;4961830;28;20086;-80
2020/12/18 07:08:41;;;;;;;5.25;2.03;;;8.50;90.30;;;8.58;76.23;101104.06;4979188;28;20138;-79
2020/12/18 07:11:11;;;;;;;11.38;2.42;;;8.50;90.50;;;8.63;76.19;101098.19;4979438;28;20150;-80
2020/12/18 07:13:42;;;;;;;8.80;2.40;;;8.50;90.40;;;8.60;75.87;101105.63;4978945;28;20043;-79
2020/12/18 07:16:11;;;;;;;7.15;2.53;;;8.50;90.50;;;8.57;76.16;101095.09;4978568;28;20058;-80
2020/12/18 07:18:40;;;;;;;10.55;2.45;;;8.50;90.40;;;8.54;76.03;101100.81;4979003;28;20101;-80
2020/12/18 07:21:09;;;;;;;7.15;2.03;;;8.50;90.40;;;8.56;75.96;101098.78;4960051;28;20059;-80
2020/12/18 07:23:39;;;;;;;8.68;2.40;;;8.50;90.40;;;8.52;76.15;101091.97;4974585;28;20527;-79
2020/12/18 07:26:07;;;;;;;7.20;2.13;;;8.50;90.50;;;8.49;76.34;101096.88;4964303;28;20140;-80
2020/12/18 07:28:37;;;;;;;8.85;2.38;;;8.40;90.20;;;8.45;75.79;101087.34;4961988;28;20055;-79
2020/12/18 07:31:06;;;;;;;8.23;2.22;;;8.40;90.10;;;8.45;75.58;101090.91;4980400;28;20055;-79
2020/12/18 07:33:33;;;;;;;11.63;2.20;;;8.40;90.20;;;8.46;75.65;101095.34;4981578;28;20042;-80
2020/12/18 07:36:01;;;;;;;5.40;2.20;;;8.40;90.20;;;8.47;76.40;101094.31;4996770;28;20046;-80
2020/12/18 07:38:32;;;;;;;8.27;2.45;;;8.40;90.20;;;8.47;75.58;101083.44;4988569;28;20042;-79
2020/12/18 07:41:01;;;;;;;8.57;2.17;;;8.40;90.30;;;8.50;75.91;101093.16;4982944;28;20051;-79
2020/12/18 07:43:30;;;;;;;6.35;1.90;;;8.40;90.50;;;8.46;76.32;101080.94;4981830;28;20047;-80
2020/12/18 07:45:59;;;;;;;8.73;2.30;;;8.40;90.50;;;8.50;75.80;101082.31;4981374;28;20427;-80
2020/12/18 07:48:31;;;;;;;9.93;2.72;;;8.40;90.50;;;8.49;76.42;101078.75;4981882;28;20058;-80
2020/12/18 07:51:01;;;;;;;7.38;2.60;;;8.40;90.70;;;8.56;76.08;101073.53;4982926;28;20110;-80
2020/12/18 07:53:30;;;;;;;10.52;2.65;;;8.40;90.80;;;8.56;76.58;101071.66;4982308;28;20049;-80
2020/12/18 07:56:03;;;;;;;8.20;2.40;;;8.40;91.00;;;8.53;76.10;101082.84;4980261;28;20093;-81
2020/12/18 07:58:31;;;;;;;7.60;2.33;;;8.40;90.80;;;8.55;76.40;101086.25;4982274;28;20070;-80
2020/12/18 08:01:08;;;;;;;6.70;2.30;;;8.50;90.90;;;8.58;76.22;101091.34;4993086;28;20117;-80
2020/12/18 08:03:37;;;;;;;7.57;2.55;;;8.50;91.10;;;8.60;76.73;101077.63;4984262;28;20074;-80
2020/12/18 08:06:06;;;;;;;9.18;2.40;;;8.50;91.00;;;8.64;76.62;101083.59;4982505;28;20055;-80
2020/12/18 08:08:33;;;;;;;8.65;2.22;;;8.60;91.00;;;8.61;76.57;101082.06;4982896;28;20043;-80
2020/12/18 08:11:04;;;;;;;10.88;2.30;;;8.60;90.90;;;8.63;76.44;101081.91;4982498;28;20042;-80
2020/12/18 08:13:32;;;;;;;8.10;2.70;;;8.70;90.80;;;8.66;76.64;101078.88;4982518;28;20043;-83
2020/12/18 08:16:14;;;;;;;10.25;3.28;;;8.70;90.80;;;8.65;76.53;101077.19;4985375;28;20130;-83
2020/12/18 08:18:51;;;;;;;11.10;2.45;;;8.70;90.90;;;8.65;77.33;101088.03;4999240;28;20053;-82
2020/12/18 08:21:24;;;;;;;8.57;2.35;;;8.70;90.80;;;8.69;77.24;101081.28;4984931;28;20061;-83
2020/12/18 08:24:01;;;;;;;6.07;2.25;;;8.80;90.80;;;8.68;76.65;101079.56;4985633;28;20039;-83
2020/12/18 08:26:33;;;;;;;5.63;2.03;;;8.80;90.50;;;8.69;77.12;101082.13;4983914;28;20093;-79
2020/12/18 08:29:01;;;;;;;9.60;1.98;;;8.90;90.50;;;8.74;77.04;101090.66;4983801;28;20158;-83
2020/12/18 08:35:20;;;;;;;5.88;2.10;;;8.90;90.30;;;8.82;77.01;101081.69;4876983;29;20076;-83
2020/12/18 08:37:48;;;;;;;10.23;2.20;;;9.00;90.10;;;8.82;77.25;101079.00;4894255;29;20063;-83
2020/12/18 08:40:20;;;;;;;6.57;2.03;;;9.00;90.20;;;8.86;76.98;101084.94;4904909;29;20151;-84
2020/12/18 08:42:59;;;;;;;12.65;2.50;;;9.00;90.20;;;8.87;76.93;101083.94;4904132;29;20124;-84
2020/12/18 08:45:27;;;;;;;9.23;2.30;;;9.00;90.10;;;8.87;77.26;101073.94;4904943;29;20053;-85
2020/12/18 08:47:55;;;;;;;10.90;2.30;;;9.10;90.10;;;8.89;77.06;101077.34;4902590;29;20131;-83
2020/12/18 08:50:25;;;;;;;6.63;1.77;;;9.10;90.00;;;8.92;76.65;101076.16;4900275;29;20067;-82
2020/12/18 08:52:53;;;;;;;8.27;2.38;;;9.10;90.10;;;8.93;76.42;101089.59;4902630;29;20068;-82
2020/12/18 08:55:22;;;;;;;9.98;3.17;;;9.20;89.90;;;8.91;76.94;101091.59;4903399;29;20064;-82
2020/12/18 08:57:49;;;;;;;8.30;2.40;;;9.20;89.60;;;8.95;76.90;101087.56;4902798;29;20052;-82
2020/12/18 09:00:17;;;;;;;6.50;2.03;;;9.20;89.50;;;8.99;76.58;101097.09;4904141;29;20060;-82
2020/12/18 09:02:55;;;;;;;6.80;2.38;;;9.20;89.50;;;9.02;76.47;101093.19;4903848;29;20068;-82
2020/12/18 09:05:26;;;;;;;6.80;2.30;;;9.30;89.70;;;8.98;76.49;101098.06;4901349;29;20056;-82
2020/12/18 09:07:56;;;;;;;8.88;2.70;;;9.30;89.50;;;9.00;76.72;101096.09;4903542;29;20490;-82
2020/12/18 09:10:39;;;;;;;7.63;2.33;;;9.30;89.30;;;9.03;76.86;101102.22;4908838;28;20108;-82
2020/12/18 09:13:18;;;;;;;9.57;2.20;;;9.30;89.30;;;9.06;76.64;101105.41;4981823;28;20050;-82
2020/12/18 09:15:48;;;;;;;9.20;2.45;;;9.40;89.20;;;9.07;76.53;101107.13;4981862;28;20125;-82
2020/12/18 09:18:20;;;;;;;10.98;2.83;;;9.40;89.20;;;9.09;76.77;101109.69;4982190;28;20066;-82
2020/12/18 09:20:48;;;;;;;4.90;2.50;;;9.40;89.20;;;9.05;76.70;101117.31;4978980;28;20043;-82
2020/12/18 09:23:16;;;;;;;6.85;2.20;;;9.50;89.10;;;9.09;76.72;101118.69;4984510;28;20046;-82
2020/12/18 09:25:48;;;;;;;10.85;2.38;;;9.50;89.00;;;9.11;76.64;101111.22;4982382;28;20047;-82
2020/12/18 09:28:18;;;;;;;7.10;2.33;;;9.50;89.20;;;9.15;76.60;101119.91;4965427;28;20042;-82
2020/12/18 09:30:50;;;;;;;7.93;2.47;;;9.50;89.00;;;9.17;76.95;101117.88;4982972;28;20111;-82
2020/12/18 09:33:30;;;;;;;7.95;2.60;;;9.50;89.00;;;9.19;76.49;101119.44;4982215;28;20050;-82
2020/12/18 09:36:09;;;;;;;7.13;2.50;;;9.60;89.10;;;9.18;76.58;101111.47;4981530;28;20053;-82
2020/12/18 09:38:38;;;;;;;7.00;2.42;;;9.60;89.10;;;9.20;76.87;101123.84;4988173;28;20102;-82
2020/12/18 09:41:08;;;;;;;8.43;3.00;;;9.60;89.20;;;9.23;76.89;101121.81;4959285;28;20055;-82
2020/12/18 09:43:35;;;;;;;10.25;2.80;;;9.60;89.20;;;9.25;76.66;101131.50;4982469;28;20047;-82
2020/12/18 09:46:02;;;;;;;6.38;2.10;;;9.60;89.30;;;9.29;76.48;101132.03;4980851;28;20073;-83
2020/12/18 09:48:29;;;;;;;7.50;2.70;;;9.60;89.20;;;9.31;76.91;101125.44;4981828;28;20046;-82
2020/12/18 09:50:58;;;;;;;8.25;2.42;;;9.60;89.20;;;9.27;76.41;101134.06;4981589;28;20578;-82
2020/12/18 09:53:26;;;;;;;8.02;3.13;;;9.60;89.30;;;9.30;76.72;101129.16;4979344;28;20062;-82
2020/12/18 09:55:54;;;;;;;10.70;2.80;;;9.60;89.40;;;9.29;76.40;101141.06;4977446;28;20035;-80
2020/12/18 09:58:21;;;;;;;7.97;2.00;;;9.60;89.30;;;9.31;76.82;101130.00;4980242;28;20042;-80
2020/12/18 10:00:48;;;;;;;7.50;2.47;;;9.60;89.20;;;9.31;76.33;101133.59;4990356;28;20047;-80
2020/12/18 10:03:15;;;;;;;11.45;2.22;;;9.70;89.00;;;9.30;76.35;101134.59;4980510;28;20758;-80
2020/12/18 10:05:44;;;;;;;6.97;2.20;;;9.70;88.90;;;9.30;76.65;101142.75;4980180;28;20443;-81
2020/12/18 10:08:12;;;;;;;6.95;2.00;;;9.70;89.00;;;9.31;76.44;101138.16;4980823;28;20086;-81
2020/12/18 10:10:39;;;;;;;9.15;2.20;;;9.70;88.70;;;9.36;76.46;101138.53;4980013;28;20050;-81
2020/12/18 10:13:05;;;;;;;6.93;2.45;;;9.80;88.70;;;9.40;76.58;101139.91;4980167;28;20077;-80
2020/12/18 10:15:33;;;;;;;8.25;2.60;;;9.80;88.70;;;9.39;76.51;101141.78;4980346;28;20468;-81
2020/12/18 10:18:00;;;;;;;11.82;2.75;;;9.80;88.50;;;9.40;76.47;101145.34;4962015;28;20070;-82
2020/12/18 10:20:26;;;;;;;6.47;2.50;;;9.80;88.40;;;9.43;76.52;101138.75;4978862;28;20123;-81
2020/12/18 10:22:53;;;;;;;10.32;2.42;;;9.90;88.40;;;9.45;76.57;101144.88;4979704;28;20102;-81
2020/12/18 10:25:21;;;;;;;9.98;2.80;;;9.90;88.30;;;9.46;76.29;101143.84;4976202;28;20039;-80
2020/12/18 10:27:48;;;;;;;9.90;2.45;;;9.90;88.20;;;9.49;76.47;101135.38;4975978;28;20129;-82
2020/12/18 10:30:15;;;;;;;8.40;2.50;;;10.00;88.20;;;9.50;76.27;101135.22;4977343;28;20043;-82
2020/12/18 10:32:42;;;;;;;5.30;2.33;;;10.00;87.80;;;9.53;76.35;101134.88;4979248;28;20078;-82
2020/12/18 10:35:10;;;;;;;5.35;2.30;;;10.00;87.80;;;9.56;76.57;101129.13;4975905;28;20051;-82
2020/12/18 10:37:36;;;;;;;7.95;1.98;;;10.10;87.50;;;9.58;76.17;101128.97;4973621;28;20061;-82
2020/12/18 10:40:05;;;;;;;7.18;2.03;;;10.20;87.40;;;9.59;76.79;101128.81;4975204;28;20051;-82
2020/12/18 10:42:33;;;;;;;6.88;2.40;;;10.20;87.50;;;9.60;75.99;101129.66;4973689;28;20074;-82
2020/12/18 10:45:00;;;;;;;8.88;2.15;;;10.20;87.00;;;9.64;76.27;101124.75;4971704;28;20077;-82
2020/12/18 10:47:26;;;;;;;9.70;2.47;;;10.20;87.00;;;9.65;75.94;101121.84;4972880;28;20051;-81
2020/12/18 10:49:55;;;;;;;7.32;2.58;;;10.30;86.90;;;9.67;75.99;101125.28;4971905;28;20133;-82
2020/12/18 10:52:24;;;;;;;9.68;2.28;;;10.30;86.80;;;9.71;76.20;101131.22;4968202;28;20109;-82
2020/12/18 10:54:52;;;;;;;5.75;2.10;;;10.40;86.90;;;9.71;76.25;101123.06;4974741;28;20054;-82